Time;durP1;ratioP1;P1;durP2;ratioP2;P2;SDS_P1;SDS_P2;PMS_P1;PMS_P2;Temp;Humidity;BMP_temperature;BMP_pressure;BME280_temperature;BME280_humidity;BME280_pressure;Samples;Min_cycle;Max_cycle;Signal;HPM_P1;HPM_P2
2023/10/03 00:02:00;;;;;;;15.43;12.23;;;23.00;66.60;23.90;100447.00;;;;5008255;28;20254;-49
2023/10/03 00:04:26;;;;;;;18.53;13.03;;;23.00;66.60;23.90;100449.00;;;;5009045;28;20203;-49
2023/10/03 00:06:52;;;;;;;15.40;12.83;;;23.00;66.60;23.90;100433.00;;;;5008987;28;20190;-49
2023/10/03 00:09:17;;;;;;;16.35;12.73;;;23.00;66.40;23.90;100442.00;;;;5008691;28;20528;-49
2023/10/03 00:11:43;;;;;;;14.67;12.80;;;23.00;66.70;23.90;100431.00;;;;5008597;28;20183;-49
2023/10/03 00:14:11;;;;;;;15.18;12.30;;;23.00;66.70;23.90;100436.00;;;;5008696;28;20227;-49
2023/10/03 00:16:38;;;;;;;16.20;12.90;;;23.00;66.80;23.90;100424.00;;;;5008807;28;20187;-49
2023/10/03 00:19:04;;;;;;;16.40;12.93;;;22.90;66.60;23.90;100417.00;;;;5008585;28;20291;-49
2023/10/03 00:21:29;;;;;;;16.27;12.93;;;23.00;66.60;23.80;100416.00;;;;5008727;28;20278;-49
2023/10/03 00:23:55;;;;;;;16.95;13.05;;;22.90;66.80;23.80;100410.00;;;;5009223;28;20263;-49
2023/10/03 00:26:22;;;;;;;15.87;12.47;;;22.90;66.90;23.80;100411.00;;;;5029559;28;20230;-48
2023/10/03 00:28:49;;;;;;;15.83;12.10;;;22.90;66.60;23.80;100418.00;;;;5012835;28;20599;-49
2023/10/03 00:31:15;;;;;;;16.30;13.00;;;23.00;66.80;23.80;100410.00;;;;5008126;28;20324;-50
2023/10/03 00:33:41;;;;;;;16.93;12.73;;;22.90;66.70;23.70;100397.00;;;;5008654;28;20195;-49
2023/10/03 00:36:18;;;;;;;17.60;12.10;;;22.90;67.00;23.70;100395.00;;;;5008397;28;20619;-49
2023/10/03 00:38:45;;;;;;;16.03;13.13;;;22.90;67.00;23.70;100405.00;;;;5008633;28;20179;-49
2023/10/03 00:41:12;;;;;;;19.90;14.47;;;22.90;67.00;23.70;100398.00;;;;5028458;28;20167;-50
2023/10/03 00:43:37;;;;;;;17.17;13.07;;;22.80;66.70;23.70;100398.00;;;;5015674;28;20230;-49
2023/10/03 00:46:03;;;;;;;17.23;13.07;;;22.80;67.00;23.70;100391.00;;;;5008766;28;20203;-49
2023/10/03 00:48:29;;;;;;;16.67;13.13;;;22.80;67.20;23.70;100396.00;;;;5008823;28;20236;-48
2023/10/03 00:50:55;;;;;;;14.57;12.27;;;22.80;67.00;23.80;100392.00;;;;5008847;28;20183;-49
2023/10/03 00:53:21;;;;;;;15.77;12.87;;;22.80;67.00;23.80;100379.00;;;;5007569;28;20215;-49
2023/10/03 00:55:47;;;;;;;15.40;12.70;;;22.90;67.10;23.80;100374.00;;;;5008812;28;20254;-49
2023/10/03 01:00:41;;;;;;;17.43;13.90;;;22.80;67.00;23.70;100378.00;;;;5007147;28;20681;-49
2023/10/03 01:03:39;;;;;;;17.57;13.40;;;22.80;67.00;23.80;100375.00;;;;5008319;28;20208;-50
2023/10/03 01:06:12;;;;;;;17.08;13.25;;;22.80;67.00;23.70;100380.00;;;;5008466;28;20577;-50
2023/10/03 01:08:48;;;;;;;17.40;12.70;;;22.90;66.70;23.80;100370.00;;;;5011528;28;20266;-50
2023/10/03 01:11:16;;;;;;;16.05;13.00;;;22.80;67.00;23.70;100375.00;;;;5004924;28;20179;-49
2023/10/03 01:13:47;;;;;;;17.95;13.15;;;22.80;66.90;23.70;100365.00;;;;5012143;28;20190;-49
2023/10/03 01:16:14;;;;;;;16.30;12.73;;;22.80;67.00;23.70;100361.00;;;;5012615;28;20207;-49
2023/10/03 01:18:42;;;;;;;15.77;13.10;;;22.80;67.20;23.70;100360.00;;;;5012225;28;20286;-49
2023/10/03 01:21:11;;;;;;;21.10;14.13;;;22.80;67.00;23.70;100352.00;;;;5010814;28;20195;-49
2023/10/03 01:23:40;;;;;;;17.37;13.07;;;22.70;66.90;23.70;100335.00;;;;5011932;28;20207;-49
2023/10/03 01:26:07;;;;;;;17.87;14.07;;;22.80;67.10;23.70;100340.00;;;;5011986;28;20677;-49
2023/10/03 01:28:33;;;;;;;17.10;13.60;;;22.80;67.00;23.70;100340.00;;;;5010611;28;20547;-49
2023/10/03 01:30:59;;;;;;;17.80;13.20;;;22.80;67.00;23.70;100345.00;;;;5012100;28;20235;-49
2023/10/03 01:33:28;;;;;;;18.10;13.57;;;22.80;67.80;23.70;100339.00;;;;5012135;28;20330;-49
2023/10/03 01:35:55;;;;;;;17.38;13.35;;;22.80;67.20;23.70;100336.00;;;;5010845;28;20207;-49
2023/10/03 01:38:24;;;;;;;16.13;12.70;;;22.80;67.00;23.70;100334.00;;;;5011080;28;20594;-49
2023/10/03 01:40:51;;;;;;;15.98;12.82;;;22.80;67.00;23.70;100325.00;;;;5011869;28;20195;-49
2023/10/03 01:43:18;;;;;;;16.73;12.80;;;22.80;67.00;23.70;100317.00;;;;5011994;28;20214;-49
2023/10/03 01:45:43;;;;;;;17.27;13.30;;;22.80;67.00;23.70;100318.00;;;;5010874;28;20211;-48
2023/10/03 01:48:12;;;;;;;17.10;13.03;;;22.70;66.90;23.70;100302.00;;;;4992747;28;20249;-48
2023/10/03 01:50:38;;;;;;;16.13;12.47;;;22.80;67.20;23.70;100307.00;;;;5011517;28;20238;-49
2023/10/03 01:53:04;;;;;;;16.27;13.13;;;22.80;67.30;23.70;100296.00;;;;5011747;28;20282;-50
2023/10/03 01:55:29;;;;;;;15.47;12.77;;;22.70;67.00;23.70;100300.00;;;;5011676;28;20198;-49
2023/10/03 01:57:55;;;;;;;16.70;13.10;;;22.70;67.30;23.70;100308.00;;;;5011279;28;20180;-48
2023/10/03 02:00:25;;;;;;;16.47;12.67;;;22.70;67.40;23.60;100309.00;;;;5010258;28;20557;-50
2023/10/03 02:03:04;;;;;;;15.30;12.53;;;22.70;67.30;23.70;100296.00;;;;5011340;28;20702;-49
2023/10/03 02:05:34;;;;;;;16.57;12.53;;;22.80;67.40;23.60;100301.00;;;;5010947;28;20199;-49
2023/10/03 02:08:07;;;;;;;17.63;13.30;;;22.70;67.50;23.60;100275.00;;;;5002099;28;20175;-49
2023/10/03 02:10:37;;;;;;;16.73;12.93;;;22.60;67.60;23.60;100257.00;;;;5010234;28;20171;-49
2023/10/03 02:13:14;;;;;;;17.70;13.53;;;22.60;67.60;23.60;100270.00;;;;5011568;28;20204;-50
2023/10/03 02:15:44;;;;;;;17.03;12.83;;;22.50;67.70;23.60;100265.00;;;;5010267;28;20194;-49
2023/10/03 02:18:10;;;;;;;16.90;12.83;;;22.60;67.70;23.60;100255.00;;;;5013526;28;20183;-50
2023/10/03 02:21:03;;;;;;;16.17;12.60;;;22.60;67.80;23.60;100253.00;;;;5015339;28;20176;-49
2023/10/03 02:23:28;;;;;;;17.50;13.40;;;22.60;67.80;23.60;100236.00;;;;5012352;28;20218;-50
2023/10/03 02:26:08;;;;;;;15.57;12.43;;;22.50;68.50;23.60;100227.00;;;;5009748;28;20228;-50
2023/10/03 02:28:33;;;;;;;18.70;13.43;;;22.50;67.90;23.60;100227.00;;;;5014878;28;20175;-50
2023/10/03 02:31:02;;;;;;;15.93;12.87;;;22.50;67.70;23.60;100226.00;;;;5032695;28;20250;-50
2023/10/03 02:33:28;;;;;;;16.20;13.07;;;22.50;68.00;23.60;100221.00;;;;5011666;28;20211;-50
2023/10/03 02:35:54;;;;;;;16.73;13.43;;;22.60;68.00;23.50;100226.00;;;;5009543;28;20196;-50
2023/10/03 02:38:24;;;;;;;19.63;14.27;;;22.50;67.70;23.50;100214.00;;;;5010815;28;20194;-49
2023/10/03 02:40:54;;;;;;;17.57;13.23;;;22.50;67.70;23.50;100210.00;;;;5009856;28;20202;-49
2023/10/03 02:43:20;;;;;;;15.67;13.07;;;22.50;67.90;23.50;100204.00;;;;5015768;28;20235;-49
2023/10/03 02:45:46;;;;;;;18.13;13.33;;;22.40;68.00;23.50;100201.00;;;;5031494;28;20218;-49
2023/10/03 02:48:15;;;;;;;17.50;13.83;;;22.40;68.30;23.50;100197.00;;;;5010878;28;20187;-50
2023/10/03 02:50:46;;;;;;;17.40;12.93;;;22.40;67.90;23.50;100190.00;;;;5009574;28;20238;-50
2023/10/03 02:53:17;;;;;;;15.80;12.60;;;22.40;68.10;23.50;100197.00;;;;5010658;28;20390;-49
2023/10/03 02:55:43;;;;;;;15.73;12.50;;;22.40;68.00;23.50;100197.00;;;;5010667;28;20195;-49
2023/10/03 02:58:13;;;;;;;15.23;11.93;;;22.40;68.00;23.50;100182.00;;;;5009153;28;20198;-48
2023/10/03 03:00:39;;;;;;;16.80;12.50;;;22.50;68.10;23.50;100177.00;;;;5010881;28;20195;-49
2023/10/03 03:03:09;;;;;;;13.60;11.50;;;22.50;68.10;23.50;100180.00;;;;5011677;28;20294;-49
2023/10/03 03:05:36;;;;;;;15.60;12.60;;;22.50;68.00;23.30;100177.00;;;;5010343;28;20385;-49
2023/10/03 03:10:45;;;;;;;15.97;12.13;;;22.50;68.00;23.40;100196.00;;;;5010644;28;20238;-49
2023/10/03 03:13:14;;;;;;;16.07;12.07;;;22.50;68.00;23.40;100186.00;;;;5010257;28;20299;-50
2023/10/03 03:15:51;;;;;;;14.67;11.80;;;22.40;68.20;23.40;100186.00;;;;5009954;28;20271;-49
2023/10/03 03:18:20;;;;;;;16.17;12.60;;;22.50;68.00;23.40;100179.00;;;;5005247;28;20659;-49
2023/10/03 03:20:58;;;;;;;14.27;11.40;;;22.50;67.80;23.40;100180.00;;;;5011071;28;20179;-49
2023/10/03 03:23:29;;;;;;;15.80;11.53;;;22.60;67.90;23.40;100178.00;;;;5010174;28;20210;-49
2023/10/03 03:26:06;;;;;;;14.33;11.80;;;22.50;68.00;23.40;100175.00;;;;5010796;28;20294;-49
2023/10/03 03:28:31;;;;;;;18.30;12.50;;;22.50;68.00;23.40;100196.00;;;;5011033;28;20187;-49
2023/10/03 03:30:58;;;;;;;15.20;11.33;;;22.50;68.10;23.40;100182.00;;;;5010107;28;20609;-49
2023/10/03 03:33:27;;;;;;;15.50;11.37;;;22.50;68.50;23.40;100177.00;;;;5010650;28;20836;-49
2023/10/03 03:35:54;;;;;;;14.60;11.30;;;22.40;68.00;23.40;100178.00;;;;4993991;28;20187;-49
2023/10/03 03:38:20;;;;;;;15.07;11.77;;;22.40;68.30;23.40;100178.00;;;;5009366;28;20809;-50
2023/10/03 03:40:47;;;;;;;14.97;11.33;;;22.40;68.30;23.40;100182.00;;;;5010611;28;20191;-49
2023/10/03 03:43:16;;;;;;;16.87;11.87;;;22.40;68.20;23.40;100172.00;;;;5010609;28;20208;-50
2023/10/03 03:45:45;;;;;;;17.20;11.63;;;22.40;68.00;23.40;100177.00;;;;4993251;28;20219;-49
2023/10/03 03:48:13;;;;;;;15.77;11.47;;;22.40;68.00;23.40;100173.00;;;;5010573;28;20184;-49
2023/10/03 03:50:39;;;;;;;16.70;11.57;;;22.40;68.20;23.40;100170.00;;;;5010524;28;20187;-49
2023/10/03 03:53:06;;;;;;;14.03;10.50;;;22.40;67.70;23.40;100180.00;;;;5010322;28;20204;-50
2023/10/03 03:55:34;;;;;;;14.70;11.27;;;22.40;68.10;23.40;100178.00;;;;5010740;28;20192;-50
2023/10/03 03:58:00;;;;;;;15.00;11.43;;;22.50;68.00;23.40;100187.00;;;;5009199;28;20298;-49
2023/10/03 04:00:29;;;;;;;13.70;10.63;;;22.40;67.60;23.30;100185.00;;;;5010123;28;20330;-48
2023/10/03 04:02:59;;;;;;;16.20;11.40;;;22.40;67.80;23.40;100189.00;;;;5010224;28;20285;-49
2023/10/03 04:05:25;;;;;;;14.87;11.33;;;22.50;67.90;23.40;100173.00;;;;5009085;28;20282;-49
2023/10/03 04:07:51;;;;;;;14.10;10.60;;;22.40;67.60;23.30;100182.00;;;;5004866;28;20299;-50
2023/10/03 04:10:18;;;;;;;15.07;11.50;;;22.40;67.60;23.40;100193.00;;;;4991743;28;20179;-49
2023/10/03 04:12:43;;;;;;;15.83;11.50;;;22.40;67.60;23.40;100188.00;;;;5008324;28;20203;-49
2023/10/03 04:15:18;;;;;;;15.07;11.00;;;22.40;67.90;23.40;100183.00;;;;5009334;28;20186;-50
2023/10/03 04:17:46;;;;;;;13.13;10.47;;;22.40;68.00;23.30;100197.00;;;;5009468;28;20210;-49
2023/10/03 04:20:30;;;;;;;13.90;10.67;;;22.40;67.90;23.40;100195.00;;;;5007703;28;20198;-48
2023/10/03 04:22:58;;;;;;;15.73;11.13;;;22.40;67.70;23.30;100186.00;;;;5009439;28;20315;-50
2023/10/03 04:25:24;;;;;;;12.90;10.87;;;22.40;67.70;23.30;100188.00;;;;5008107;28;20303;-49
2023/10/03 04:27:51;;;;;;;16.33;11.37;;;22.40;67.50;23.30;100198.00;;;;5008960;28;20266;-49
2023/10/03 04:30:20;;;;;;;13.67;10.97;;;22.40;67.90;23.30;100193.00;;;;5011343;28;20187;-48
2023/10/03 04:32:47;;;;;;;13.93;10.83;;;22.50;67.90;23.30;100205.00;;;;5030534;28;20276;-56
2023/10/03 04:35:14;;;;;;;15.80;11.63;;;22.30;67.50;23.40;100210.00;;;;5011306;28;20231;-50
2023/10/03 04:37:43;;;;;;;12.47;10.60;;;22.30;67.80;23.30;100202.00;;;;5007879;28;20191;-50
2023/10/03 04:40:33;;;;;;;14.60;11.33;;;22.30;68.10;23.30;100197.00;;;;5009105;28;20237;-50
2023/10/03 04:42:59;;;;;;;16.17;11.43;;;22.30;67.80;23.30;100202.00;;;;5009418;28;20219;-49
2023/10/03 04:45:25;;;;;;;13.37;10.60;;;22.30;68.00;23.30;100191.00;;;;5013301;28;20195;-49
2023/10/03 04:47:51;;;;;;;14.10;10.43;;;22.40;67.80;23.30;100185.00;;;;5027522;28;20271;-49
2023/10/03 04:50:18;;;;;;;14.67;10.63;;;22.40;67.80;23.30;100191.00;;;;5009387;28;20593;-49
2023/10/03 04:52:48;;;;;;;13.77;10.67;;;22.40;67.70;23.30;100190.00;;;;5007809;28;20199;-49
2023/10/03 04:55:17;;;;;;;13.30;10.37;;;22.40;67.70;23.30;100192.00;;;;5009129;28;20215;-49
2023/10/03 04:57:48;;;;;;;12.93;10.43;;;22.40;67.60;23.30;100209.00;;;;5006745;28;20259;-49
2023/10/03 05:00:17;;;;;;;12.97;10.60;;;22.40;67.50;23.30;100214.00;;;;5008694;28;20677;-50
2023/10/03 05:02:47;;;;;;;13.83;10.93;;;22.40;67.50;23.30;100231.00;;;;5008464;28;20210;-49
2023/10/03 05:05:23;;;;;;;11.90;9.83;;;22.40;67.80;23.30;100228.00;;;;5009194;28;20296;-49
2023/10/03 05:07:53;;;;;;;16.47;11.20;;;22.30;67.90;23.30;100225.00;;;;5008304;28;20310;-49
2023/10/03 05:10:30;;;;;;;14.57;10.03;;;22.30;68.00;23.30;100237.00;;;;5009504;28;20608;-48
2023/10/03 05:12:57;;;;;;;13.70;10.20;;;22.40;68.10;23.30;100230.00;;;;5009207;28;20203;-49
2023/10/03 05:15:23;;;;;;;13.87;10.33;;;22.20;68.10;23.30;100232.00;;;;5009399;28;20209;-50
2023/10/03 05:17:49;;;;;;;12.83;9.37;;;22.20;68.30;23.20;100233.00;;;;5008667;28;20674;-49
2023/10/03 05:20:18;;;;;;;12.40;10.13;;;22.30;68.10;23.20;100229.00;;;;5007181;28;20206;-50
2023/10/03 05:22:47;;;;;;;12.07;9.67;;;22.30;68.10;23.20;100242.00;;;;5007587;28;20682;-49
2023/10/03 05:25:18;;;;;;;12.57;9.90;;;22.40;68.20;23.20;100246.00;;;;5009091;28;20727;-49
2023/10/03 05:27:48;;;;;;;12.67;10.20;;;22.40;68.20;23.20;100240.00;;;;5008152;28;20171;-49
2023/10/03 05:30:14;;;;;;;11.93;10.07;;;22.20;68.40;23.20;100246.00;;;;5008359;28;20633;-48
2023/10/03 05:32:41;;;;;;;13.40;10.37;;;22.20;68.40;23.20;100261.00;;;;5008706;28;20192;-49
2023/10/03 05:35:07;;;;;;;13.60;10.50;;;22.30;68.50;23.20;100255.00;;;;5009039;28;20549;-50
2023/10/03 05:37:33;;;;;;;14.93;9.83;;;22.30;68.50;23.30;100266.00;;;;5008602;28;20179;-49
2023/10/03 05:40:11;;;;;;;13.43;10.30;;;22.30;68.50;23.30;100258.00;;;;5008399;28;20179;-49
2023/10/03 05:42:41;;;;;;;13.87;10.80;;;22.40;68.50;23.30;100258.00;;;;5008671;28;20200;-49
2023/10/03 05:45:12;;;;;;;13.77;10.43;;;22.20;68.70;23.20;100266.00;;;;5008140;28;20257;-49
2023/10/03 05:47:45;;;;;;;14.17;10.60;;;22.10;69.20;23.20;100265.00;;;;5008303;28;20175;-49
2023/10/03 05:50:22;;;;;;;16.73;10.97;;;22.00;69.70;23.10;100268.00;;;;5008917;28;20191;-49
2023/10/03 05:52:47;;;;;;;12.10;9.93;;;21.90;70.30;23.10;100261.00;;;;5008831;28;20199;-49
2023/10/03 05:55:13;;;;;;;11.63;9.30;;;22.00;70.50;23.10;100259.00;;;;5012289;28;20241;-51
2023/10/03 05:57:42;;;;;;;13.43;10.17;;;21.90;70.70;23.10;100265.00;;;;5011897;28;20433;-49
2023/10/03 06:00:17;;;;;;;12.00;9.43;;;22.00;71.00;23.10;100257.00;;;;5012102;28;20176;-49
2023/10/03 06:02:47;;;;;;;11.60;8.70;;;21.90;70.80;23.10;100271.00;;;;5011682;28;20195;-49
2023/10/03 06:05:16;;;;;;;11.53;9.13;;;22.00;71.50;23.10;100272.00;;;;5007694;28;20195;-49
2023/10/03 06:07:42;;;;;;;11.17;8.33;;;22.10;71.40;23.10;100259.00;;;;5011375;28;20599;-50
2023/10/03 06:10:10;;;;;;;12.17;9.10;;;22.10;70.70;23.10;100279.00;;;;5013076;28;20258;-49
2023/10/03 06:12:37;;;;;;;11.60;9.10;;;22.20;70.40;23.10;100243.00;;;;5016788;28;20183;-49
2023/10/03 06:15:04;;;;;;;11.93;9.67;;;22.20;70.10;23.10;100300.00;;;;5015492;28;20188;-49
2023/10/03 06:17:32;;;;;;;13.47;9.30;;;22.10;70.80;23.10;100305.00;;;;5011327;28;20188;-49
2023/10/03 06:19:57;;;;;;;12.67;9.43;;;22.10;71.60;23.10;100312.00;;;;5011332;28;20234;-49
2023/10/03 06:22:23;;;;;;;14.73;10.10;;;22.00;71.90;23.10;100318.00;;;;5010879;28;20573;-49
2023/10/03 06:24:50;;;;;;;11.27;8.80;;;21.90;72.70;23.00;100323.00;;;;5011954;28;20188;-50
2023/10/03 06:27:17;;;;;;;11.60;8.70;;;21.80;72.90;23.00;100326.00;;;;5012250;28;20245;-48
2023/10/03 06:29:43;;;;;;;11.90;8.70;;;21.80;73.00;23.00;100322.00;;;;5011501;28;20333;-49
2023/10/03 06:32:09;;;;;;;11.50;8.87;;;21.90;73.20;23.00;100323.00;;;;5021516;28;20183;-49
2023/10/03 06:34:35;;;;;;;12.20;8.57;;;21.80;73.20;22.90;100305.00;;;;5028313;28;20226;-49
2023/10/03 06:37:01;;;;;;;12.63;8.67;;;21.90;73.40;22.90;100309.00;;;;5011625;28;20180;-48
2023/10/03 06:39:26;;;;;;;11.40;8.70;;;21.80;73.40;22.90;100320.00;;;;5011111;28;20211;-49
2023/10/03 06:41:55;;;;;;;12.77;8.87;;;21.80;73.60;22.90;100306.00;;;;5012004;28;20707;-49
2023/10/03 06:44:22;;;;;;;13.93;8.87;;;21.80;74.50;22.90;100340.00;;;;5011757;28;20203;-49
2023/10/03 06:46:47;;;;;;;12.97;8.60;;;21.80;73.90;22.90;100347.00;;;;5020217;28;20199;-49
2023/10/03 06:49:14;;;;;;;11.57;8.50;;;21.80;74.30;22.90;100336.00;;;;5024926;28;20314;-49
2023/10/03 06:51:39;;;;;;;10.97;8.73;;;21.80;74.40;22.90;100312.00;;;;5011355;28;20186;-49
2023/10/03 06:54:05;;;;;;;11.70;8.67;;;21.80;74.30;22.90;100313.00;;;;5011492;28;20597;-49
2023/10/03 06:56:32;;;;;;;11.60;8.70;;;21.80;74.20;22.90;100301.00;;;;5010522;28;20176;-50
2023/10/03 06:59:08;;;;;;;11.33;8.23;;;21.90;74.10;22.90;100333.00;;;;5009960;28;20238;-49
2023/10/03 07:01:35;;;;;;;11.37;8.57;;;21.90;74.50;22.90;100393.00;;;;5010902;28;20672;-49
2023/10/03 07:04:01;;;;;;;11.17;8.67;;;21.80;74.90;22.90;100396.00;;;;5012251;28;20203;-49
2023/10/03 07:06:28;;;;;;;11.83;8.03;;;21.80;75.10;22.80;100381.00;;;;4988611;28;20683;-49
2023/10/03 07:08:54;;;;;;;11.67;8.47;;;21.80;74.70;22.90;100410.00;;;;5009843;28;20728;-48
2023/10/03 07:11:20;;;;;;;11.40;8.83;;;21.80;75.10;22.80;100397.00;;;;5011081;28;20179;-50
2023/10/03 07:13:47;;;;;;;11.60;7.87;;;21.70;75.70;22.70;100391.00;;;;5010161;28;20195;-50
2023/10/03 07:16:12;;;;;;;10.80;7.93;;;21.60;76.30;22.70;100390.00;;;;5010732;28;20679;-49
2023/10/03 07:18:39;;;;;;;10.57;7.20;;;21.50;76.20;22.60;100379.00;;;;5010577;28;20298;-49
2023/10/03 07:21:05;;;;;;;9.80;6.93;;;21.40;76.20;22.60;100396.00;;;;5010777;28;20274;-50
2023/10/03 07:23:31;;;;;;;8.47;6.60;;;21.40;76.80;22.50;100416.00;;;;5010644;28;20326;-50
2023/10/03 07:25:56;;;;;;;10.57;6.50;;;21.40;76.70;22.50;100411.00;;;;5010586;28;20270;-50
2023/10/03 07:28:22;;;;;;;9.47;6.43;;;21.30;76.80;22.50;100408.00;;;;5010688;28;20175;-49
2023/10/03 07:30:48;;;;;;;8.77;5.77;;;21.40;76.90;22.40;100392.00;;;;5010401;28;20175;-49
2023/10/03 07:33:14;;;;;;;7.47;5.83;;;21.30;76.80;22.40;100370.00;;;;5010612;28;20215;-49
2023/10/03 07:35:41;;;;;;;9.60;5.80;;;21.30;76.90;22.40;100409.00;;;;5010416;28;20654;-49
2023/10/03 07:38:11;;;;;;;8.17;5.60;;;21.20;76.30;22.30;100449.00;;;;5009980;28;20636;-48
2023/10/03 07:40:38;;;;;;;7.47;5.37;;;21.20;76.80;22.30;100446.00;;;;5010415;28;20195;-49
2023/10/03 07:43:09;;;;;;;5.70;4.90;;;21.10;77.10;22.20;100438.00;;;;5009314;28;20203;-50
2023/10/03 07:45:38;;;;;;;8.83;5.50;;;21.10;77.30;22.20;100410.00;;;;5009491;28;20694;-49
2023/10/03 07:48:05;;;;;;;8.30;5.67;;;21.10;78.40;22.20;100413.00;;;;5010192;28;20262;-49
2023/10/03 07:50:34;;;;;;;6.93;5.27;;;21.10;77.50;22.20;100421.00;;;;5010334;28;20187;-48
2023/10/03 07:52:59;;;;;;;8.10;5.47;;;21.10;77.60;22.20;100435.00;;;;5010220;28;20250;-48
2023/10/03 07:55:25;;;;;;;13.47;5.40;;;21.20;77.60;22.20;100441.00;;;;5009972;28;20183;-49
2023/10/03 07:57:54;;;;;;;6.53;5.20;;;21.10;77.60;22.20;100427.00;;;;5009842;28;20183;-49
2023/10/03 08:00:26;;;;;;;9.40;5.43;;;21.10;77.70;22.20;100409.00;;;;5009064;28;20180;-49
2023/10/03 08:02:52;;;;;;;7.33;5.83;;;21.10;77.90;22.20;100408.00;;;;5009122;28;20697;-49
2023/10/03 08:05:18;;;;;;;6.50;5.43;;;21.20;78.70;22.20;100420.00;;;;5009513;28;20276;-49
2023/10/03 08:07:53;;;;;;;7.63;5.17;;;21.20;77.90;22.30;100439.00;;;;5010086;28;20247;-49
2023/10/03 08:10:19;;;;;;;6.70;5.23;;;21.20;77.90;22.30;100460.00;;;;5010179;28;20642;-48
2023/10/03 08:12:47;;;;;;;6.70;4.90;;;21.30;77.80;22.30;100447.00;;;;5008509;28;20200;-49
2023/10/03 08:15:19;;;;;;;5.97;5.27;;;21.20;77.70;22.30;100455.00;;;;5008730;28;20175;-49
2023/10/03 08:17:49;;;;;;;6.07;4.43;;;21.20;77.20;22.30;100448.00;;;;5009634;28;20245;-49
2023/10/03 08:20:16;;;;;;;5.40;4.77;;;21.20;77.20;22.30;100434.00;;;;5008135;28;20202;-49
2023/10/03 08:22:42;;;;;;;6.87;4.60;;;21.10;77.10;22.30;100431.00;;;;5009494;28;20199;-49
2023/10/03 08:25:11;;;;;;;6.10;4.60;;;21.10;77.20;22.30;100449.00;;;;5009664;28;20696;-49
2023/10/03 08:27:37;;;;;;;5.13;4.07;;;21.10;77.20;22.20;100459.00;;;;5009551;28;20182;-48
2023/10/03 08:30:05;;;;;;;5.07;4.30;;;21.20;78.10;22.20;100449.00;;;;5009454;28;20180;-49
2023/10/03 08:32:31;;;;;;;6.13;3.80;;;21.20;77.10;22.30;100433.00;;;;5014705;28;20179;-49
2023/10/03 08:34:57;;;;;;;5.47;4.13;;;21.20;76.80;22.30;100442.00;;;;5029318;28;20242;-48
2023/10/03 08:37:23;;;;;;;5.37;4.10;;;21.20;76.60;22.30;100437.00;;;;5008634;28;20179;-49
2023/10/03 08:39:50;;;;;;;5.90;4.70;;;21.30;76.80;22.30;100464.00;;;;5009307;28;20263;-49
2023/10/03 08:42:35;;;;;;;5.67;4.50;;;21.20;76.90;22.30;100480.00;;;;5009764;28;20234;-50
2023/10/03 08:45:22;;;;;;;6.83;4.83;;;21.20;76.90;22.30;100498.00;;;;5009793;28;20231;-49
2023/10/03 08:47:51;;;;;;;5.70;4.63;;;21.20;77.10;22.20;100478.00;;;;5016975;28;20210;-49
2023/10/03 08:50:33;;;;;;;4.93;4.30;;;21.20;77.30;22.30;100482.00;;;;5020157;28;20306;-48
2023/10/03 08:53:12;;;;;;;5.47;4.63;;;21.20;77.20;22.20;100478.00;;;;4995125;28;20234;-48
2023/10/03 08:55:39;;;;;;;4.63;4.13;;;21.20;77.30;22.20;100480.00;;;;5008032;28;20196;-49
2023/10/03 08:58:08;;;;;;;5.27;4.33;;;21.20;78.10;22.30;100470.00;;;;5009115;28;20176;-49
2023/10/03 09:00:40;;;;;;;4.97;4.33;;;21.30;77.00;22.30;100468.00;;;;5009258;28;20183;-47
2023/10/03 09:03:09;;;;;;;4.90;4.33;;;21.20;77.50;22.30;100466.00;;;;5009214;28;20211;-51
2023/10/03 09:05:39;;;;;;;5.00;4.50;;;21.20;77.80;22.30;100457.00;;;;5007466;28;20207;-50
2023/10/03 09:08:09;;;;;;;7.17;4.30;;;21.20;78.00;22.30;100459.00;;;;5008429;28;20187;-50
2023/10/03 09:10:39;;;;;;;8.83;4.70;;;21.10;77.80;22.20;100458.00;;;;4992151;28;20175;-50
2023/10/03 09:13:06;;;;;;;7.30;4.40;;;21.00;78.10;22.20;100458.00;;;;5009339;28;20273;-49
2023/10/03 09:15:37;;;;;;;5.70;4.10;;;21.10;78.00;22.20;100455.00;;;;5008657;28;20237;-50
2023/10/03 09:18:10;;;;;;;6.37;4.40;;;21.10;78.10;22.30;100459.00;;;;5008933;28;20183;-54
2023/10/03 09:20:37;;;;;;;5.10;4.10;;;21.20;77.80;22.20;100478.00;;;;5009065;28;20179;-52
2023/10/03 09:23:06;;;;;;;4.50;4.10;;;21.10;77.60;22.20;100474.00;;;;4991591;28;20203;-53
2023/10/03 09:25:34;;;;;;;6.77;4.20;;;21.00;77.90;22.20;100479.00;;;;5008697;28;20206;-53
2023/10/03 09:28:06;;;;;;;4.50;4.10;;;21.00;77.90;22.20;100478.00;;;;5008292;28;20187;-53
2023/10/03 09:30:38;;;;;;;5.07;3.90;;;21.00;77.80;22.20;100494.00;;;;5012887;28;20186;-53
2023/10/03 09:33:05;;;;;;;4.60;3.83;;;21.10;78.00;22.20;100496.00;;;;5010174;28;20697;-53
2023/10/03 09:35:34;;;;;;;5.43;4.03;;;21.10;78.00;22.20;100492.00;;;;5011009;28;20654;-54
2023/10/03 09:38:05;;;;;;;6.37;4.07;;;21.00;77.80;22.20;100504.00;;;;5011727;28;20188;-53
2023/10/03 09:40:49;;;;;;;5.30;4.30;;;21.00;78.30;22.10;100507.00;;;;5012887;28;20653;-54
2023/10/03 09:43:27;;;;;;;5.53;4.30;;;20.90;78.30;22.10;100517.00;;;;5012720;28;20219;-53
2023/10/03 09:45:56;;;;;;;6.23;4.27;;;21.00;78.70;22.10;100512.00;;;;5006947;28;20211;-53
2023/10/03 09:48:25;;;;;;;5.47;4.13;;;21.00;78.80;22.10;100513.00;;;;5012245;28;20629;-54
2023/10/03 09:50:55;;;;;;;4.40;3.60;;;20.90;78.80;22.10;100517.00;;;;5012122;28;20238;-55
2023/10/03 09:53:27;;;;;;;6.40;3.80;;;20.90;78.90;22.00;100525.00;;;;5012263;28;20269;-53
2023/10/03 09:55:55;;;;;;;4.93;3.83;;;20.90;79.30;22.00;100524.00;;;;5011780;28;20839;-55
2023/10/03 09:58:30;;;;;;;5.83;3.70;;;20.90;78.80;22.10;100517.00;;;;5011942;28;20187;-53
2023/10/03 10:00:57;;;;;;;5.50;3.70;;;21.00;79.40;22.10;100496.00;;;;4997180;28;20184;-54
2023/10/03 10:03:27;;;;;;;4.00;3.60;;;21.20;78.60;22.20;100507.00;;;;5016011;28;20208;-54
2023/10/03 10:05:59;;;;;;;5.63;4.07;;;21.30;78.80;22.20;100493.00;;;;4985587;28;20215;-54
2023/10/03 10:08:48;;;;;;;4.27;3.80;;;21.20;78.60;22.20;100502.00;;;;5011283;28;20237;-54
2023/10/03 10:11:14;;;;;;;5.13;4.10;;;21.10;79.20;22.20;100504.00;;;;5011028;28;20187;-54
2023/10/03 10:14:10;;;;;;;4.27;3.80;;;21.00;79.60;22.10;100502.00;;;;5010338;28;20249;-53
2023/10/03 10:17:05;;;;;;;5.43;3.90;;;20.90;80.40;22.10;100476.00;;;;5011156;28;20191;-54
2023/10/03 10:20:11;;;;;;;4.97;3.70;;;21.00;79.70;22.10;100505.00;;;;5005154;28;20204;-54
2023/10/03 10:23:02;;;;;;;5.40;4.13;;;21.00;79.80;22.10;100495.00;;;;4990681;28;20226;-54
2023/10/03 10:25:51;;;;;;;6.13;4.00;;;20.90;79.80;22.00;100501.00;;;;5011395;28;20204;-55
2023/10/03 10:28:37;;;;;;;4.43;3.67;;;20.90;80.00;22.00;100497.00;;;;5010680;28;20182;-54
2023/10/03 10:31:22;;;;;;;5.20;3.90;;;20.90;80.40;22.00;100498.00;;;;5010761;28;20203;-55
2023/10/03 10:33:49;;;;;;;5.73;3.70;;;20.90;80.20;22.00;100502.00;;;;5021006;28;20224;-54
2023/10/03 10:36:18;;;;;;;4.90;3.70;;;20.90;80.50;21.90;100508.00;;;;5020901;28;20190;-54
2023/10/03 10:38:44;;;;;;;5.27;3.73;;;20.80;80.40;21.90;100510.00;;;;5010734;28;20190;-54
2023/10/03 10:41:21;;;;;;;4.10;3.67;;;20.80;80.90;21.90;100509.00;;;;5012061;28;20192;-54
2023/10/03 10:44:07;;;;;;;4.63;3.77;;;20.90;81.70;21.90;100529.00;;;;5011587;28;20207;-54
2023/10/03 10:46:47;;;;;;;4.97;3.67;;;20.80;81.70;21.90;100534.00;;;;5012015;28;20203;-54
2023/10/03 10:49:40;;;;;;;4.00;3.60;;;20.80;82.10;21.80;100519.00;;;;5029159;28;20184;-54
2023/10/03 10:52:09;;;;;;;3.63;3.30;;;20.50;82.50;21.80;100514.00;;;;4996050;28;20337;-54
2023/10/03 10:54:42;;;;;;;6.47;3.43;;;20.80;81.80;21.90;100520.00;;;;5011021;28;20200;-54